createdAt,value
2023-03-24T00:00:15.449Z,13.84
2023-03-24T00:02:54.972Z,13.80
2023-03-24T00:05:33.827Z,13.77
2023-03-24T00:08:06.917Z,13.75
2023-03-24T00:11:22.753Z,13.77
2023-03-24T00:14:04.098Z,13.72
2023-03-24T00:20:20.182Z,13.60
2023-03-24T00:23:06.795Z,13.50
2023-03-24T00:25:57.509Z,13.43
2023-03-24T00:28:57.505Z,13.35
2023-03-24T00:31:40.521Z,13.26
2023-03-24T00:34:19.055Z,13.24
2023-03-24T00:37:15.311Z,13.20
2023-03-24T00:40:18.088Z,13.16
2023-03-24T00:43:02.937Z,13.14
2023-03-24T00:46:17.155Z,13.11
2023-03-24T00:49:06.710Z,13.05
2023-03-24T00:52:16.120Z,13.05
2023-03-24T00:54:58.923Z,13.00
2023-03-24T01:00:28.090Z,12.94
2023-03-24T01:03:08.081Z,12.92
2023-03-24T01:05:58.360Z,12.94
2023-03-24T01:08:55.159Z,12.91
2023-03-24T01:12:06.393Z,12.93
2023-03-24T01:20:34.028Z,12.87
2023-03-24T01:23:11.301Z,12.86
2023-03-24T01:26:30.378Z,12.88
2023-03-24T01:29:10.626Z,12.80
2023-03-24T01:32:25.086Z,12.76
2023-03-24T01:35:07.994Z,12.68
2023-03-24T01:38:02.014Z,12.59
2023-03-24T01:41:03.318Z,12.52
2023-03-24T01:46:57.886Z,12.44
2023-03-24T01:50:02.104Z,12.47
2023-03-24T01:52:59.165Z,12.46
2023-03-24T01:56:17.452Z,12.40
2023-03-24T01:59:15.171Z,12.38
2023-03-24T02:02:17.808Z,12.36
2023-03-24T02:05:14.125Z,12.31
2023-03-24T02:08:15.849Z,12.30
2023-03-24T02:11:03.488Z,12.23
2023-03-24T02:14:19.619Z,12.19
2023-03-24T02:21:01.055Z,12.09
2023-03-24T02:24:12.838Z,12.07
2023-03-24T02:27:22.366Z,12.08
2023-03-24T02:30:52.962Z,12.12
2023-03-24T02:34:28.725Z,12.15
2023-03-24T02:37:56.724Z,12.16
2023-03-24T02:41:29.310Z,12.18
2023-03-24T02:44:13.794Z,12.13
2023-03-24T02:47:25.937Z,12.16
2023-03-24T02:53:17.083Z,12.05
2023-03-24T02:56:30.333Z,12.07
2023-03-24T02:59:28.833Z,12.04
2023-03-24T03:02:10.428Z,12.07
2023-03-24T03:05:07.496Z,12.12
2023-03-24T03:07:57.654Z,12.19
2023-03-24T03:11:01.256Z,12.21
2023-03-24T03:14:09.875Z,12.23
2023-03-24T03:17:20.759Z,12.19
2023-03-24T03:20:22.947Z,12.20
2023-03-24T03:23:14.025Z,12.11
2023-03-24T03:26:18.023Z,12.17
2023-03-24T03:29:30.301Z,12.22
2023-03-24T03:32:41.817Z,12.25
2023-03-24T03:35:24.147Z,12.26
2023-03-24T03:38:20.084Z,12.32
2023-03-24T03:41:34.855Z,12.28
2023-03-24T03:44:04.436Z,12.29
2023-03-24T03:46:48.394Z,12.27
2023-03-24T03:50:04.929Z,12.20
2023-03-24T03:52:41.666Z,12.18
2023-03-24T03:55:21.671Z,12.21
2023-03-24T04:01:08.964Z,12.21
2023-03-24T04:05:05.743Z,12.17
2023-03-24T04:08:29.168Z,12.20
2023-03-24T04:11:48.350Z,12.23
2023-03-24T04:15:39.264Z,12.29
2023-03-24T04:19:16.102Z,12.23
2023-03-24T04:21:59.784Z,12.17
2023-03-24T04:27:46.502Z,12.12
2023-03-24T04:30:59.246Z,12.12
2023-03-24T04:34:29.520Z,12.13
2023-03-24T04:37:49.186Z,12.19
2023-03-24T04:40:43.357Z,12.21
2023-03-24T04:43:35.940Z,12.21
2023-03-24T04:46:10.847Z,12.29
2023-03-24T04:49:14.055Z,12.34
2023-03-24T04:52:06.121Z,12.41
2023-03-24T04:54:49.367Z,12.46
2023-03-24T04:57:32.058Z,12.47
2023-03-24T05:03:33.245Z,12.46
2023-03-24T05:06:19.528Z,12.49
2023-03-24T05:09:05.760Z,12.49
2023-03-24T05:11:38.524Z,12.54
2023-03-24T05:17:42.892Z,12.59
2023-03-24T05:20:30.998Z,12.63
2023-03-24T05:23:24.909Z,12.64
2023-03-24T05:26:07.703Z,12.69
2023-03-24T05:29:46.068Z,12.74
2023-03-24T05:32:35.123Z,12.75
2023-03-24T05:35:16.656Z,12.79
2023-03-24T05:37:56.684Z,12.82
2023-03-24T05:41:06.439Z,12.80
2023-03-24T05:47:45.975Z,12.77
2023-03-24T05:50:16.259Z,12.71
2023-03-24T05:52:51.069Z,12.70
2023-03-24T05:59:51.215Z,12.76
2023-03-24T06:03:26.257Z,12.74
2023-03-24T06:06:21.077Z,12.72
2023-03-24T06:09:14.321Z,12.76
2023-03-24T06:12:15.695Z,12.77
2023-03-24T06:15:31.838Z,12.86
2023-03-24T06:18:37.010Z,12.94
2023-03-24T06:25:05.626Z,13.06
2023-03-24T06:28:19.977Z,13.13
2023-03-24T06:31:02.611Z,13.14
2023-03-24T06:34:25.967Z,13.18
2023-03-24T06:37:25.185Z,13.22
2023-03-24T06:40:15.543Z,13.26
2023-03-24T06:43:20.232Z,13.35
2023-03-24T06:45:56.548Z,13.39
2023-03-24T06:48:44.697Z,13.40
2023-03-24T06:57:28.239Z,13.51
2023-03-24T07:03:43.793Z,13.63
2023-03-24T07:06:24.873Z,13.67
2023-03-24T07:10:22.734Z,13.81
2023-03-24T07:12:59.270Z,13.84
2023-03-24T07:15:54.309Z,13.89
2023-03-24T07:18:26.146Z,13.96
2023-03-24T07:21:29.244Z,14.03
2023-03-24T07:24:58.790Z,14.08
2023-03-24T07:28:12.050Z,14.10
2023-03-24T07:31:23.106Z,14.12
2023-03-24T07:34:05.100Z,14.21
2023-03-24T07:36:53.155Z,14.26
2023-03-24T07:39:43.397Z,14.33
2023-03-24T07:42:27.584Z,14.36
2023-03-24T07:45:48.434Z,14.49
2023-03-24T07:48:51.440Z,14.45
2023-03-24T07:51:38.467Z,14.49
2023-03-24T07:54:47.439Z,14.45
2023-03-24T07:58:20.302Z,14.51
2023-03-24T08:01:20.033Z,14.50
2023-03-24T08:04:06.930Z,14.63
2023-03-24T08:07:07.571Z,14.75
2023-03-24T08:09:43.377Z,14.83
2023-03-24T08:12:20.516Z,14.89
2023-03-24T08:15:15.495Z,15.00
2023-03-24T08:18:05.189Z,15.05
2023-03-24T08:21:01.919Z,15.23
2023-03-24T08:23:37.531Z,15.14
2023-03-24T08:26:44.328Z,15.21
2023-03-24T08:29:45.013Z,15.17
2023-03-24T08:32:23.898Z,15.49
2023-03-24T08:34:57.508Z,15.42
2023-03-24T08:37:51.126Z,15.45
2023-03-24T08:40:33.455Z,15.36
2023-03-24T08:43:17.169Z,15.26
2023-03-24T08:46:13.275Z,15.23
2023-03-24T08:49:09.373Z,15.21
2023-03-24T08:55:03.241Z,15.34
2023-03-24T08:58:10.639Z,15.43
2023-03-24T09:01:06.454Z,15.51
2023-03-24T09:03:40.849Z,15.59
2023-03-24T09:06:19.886Z,15.67
2023-03-24T09:08:54.689Z,15.81
2023-03-24T09:11:26.337Z,15.98
2023-03-24T09:13:56.915Z,15.97
2023-03-24T09:16:29.611Z,15.97
2023-03-24T09:19:02.089Z,16.00
2023-03-24T09:21:33.914Z,15.99
2023-03-24T09:24:10.601Z,15.88
2023-03-24T09:26:52.996Z,15.89
2023-03-24T09:29:24.340Z,15.99
2023-03-24T09:31:57.977Z,16.12
2023-03-24T09:34:39.312Z,16.22
2023-03-24T09:37:08.214Z,16.40
2023-03-24T09:39:38.434Z,16.47
2023-03-24T09:42:30.263Z,16.70
2023-03-24T09:45:16.883Z,16.69
2023-03-24T09:47:49.878Z,16.60
2023-03-24T09:50:26.323Z,16.53
2023-03-24T09:52:55.565Z,16.56
2023-03-24T09:55:38.481Z,16.51
2023-03-24T09:58:20.144Z,16.64
2023-03-24T10:00:50.726Z,16.71
2023-03-24T10:03:25.244Z,16.71
2023-03-24T10:06:04.400Z,16.89
2023-03-24T10:08:38.042Z,16.99
2023-03-24T10:11:54.010Z,17.14
2023-03-24T10:14:44.344Z,17.19
2023-03-24T10:17:30.517Z,17.39
2023-03-24T10:20:03.593Z,17.52
2023-03-24T10:22:56.566Z,17.58
2023-03-24T10:25:33.228Z,17.44
2023-03-24T10:28:05.422Z,17.17
2023-03-24T10:30:45.309Z,17.29
2023-03-24T10:33:17.936Z,17.40
2023-03-24T10:35:59.467Z,17.36
2023-03-24T10:38:31.220Z,17.32
2023-03-24T10:41:02.515Z,17.37
2023-03-24T10:46:48.233Z,17.24
2023-03-24T10:49:17.013Z,17.17
2023-03-24T10:51:49.777Z,16.95
2023-03-24T10:54:19.311Z,17.01
2023-03-24T10:56:52.325Z,16.97
2023-03-24T10:59:27.500Z,17.03
2023-03-24T11:02:15.628Z,17.01
2023-03-24T11:04:46.527Z,17.00
2023-03-24T11:07:17.447Z,17.23
2023-03-24T11:09:45.807Z,17.23
2023-03-24T11:12:27.469Z,17.39
2023-03-24T11:15:21.249Z,17.55
2023-03-24T11:17:57.299Z,17.84
2023-03-24T11:20:34.241Z,17.97
2023-03-24T11:23:05.003Z,17.84
2023-03-24T11:25:36.300Z,18.05
2023-03-24T11:28:09.035Z,17.96
2023-03-24T11:30:47.885Z,18.08
2023-03-24T11:33:34.962Z,18.04
2023-03-24T11:36:07.715Z,18.23
2023-03-24T11:38:37.060Z,18.45
2023-03-24T11:41:05.953Z,18.52
2023-03-24T11:43:34.264Z,18.12
2023-03-24T11:46:05.987Z,18.48
2023-03-24T11:48:41.778Z,18.56
2023-03-24T11:51:12.692Z,18.67
2023-03-24T11:53:43.949Z,18.69
2023-03-24T11:56:16.345Z,18.46
2023-03-24T11:58:46.481Z,18.26
2023-03-24T12:01:30.351Z,18.04
2023-03-24T12:04:09.007Z,17.76
2023-03-24T12:06:47.109Z,17.95
2023-03-24T12:09:22.929Z,18.53
2023-03-24T12:12:00.249Z,18.36
2023-03-24T12:14:43.674Z,18.39
2023-03-24T12:17:13.462Z,18.54
2023-03-24T12:20:14.684Z,18.62
2023-03-24T12:22:49.084Z,18.53
2023-03-24T12:25:26.611Z,18.31
2023-03-24T12:27:59.006Z,18.11
2023-03-24T12:30:30.942Z,18.25
2023-03-24T12:33:20.103Z,18.08
2023-03-24T12:35:52.549Z,18.07
2023-03-24T12:38:44.527Z,17.85
2023-03-24T12:41:26.116Z,17.80
2023-03-24T12:44:04.780Z,17.97
2023-03-24T12:46:47.733Z,18.21
2023-03-24T12:49:25.940Z,18.26
2023-03-24T12:52:00.642Z,18.22
2023-03-24T12:54:33.011Z,18.08
2023-03-24T12:57:02.692Z,18.07
2023-03-24T12:59:33.086Z,18.23
2023-03-24T13:02:05.790Z,18.02
2023-03-24T13:04:37.725Z,18.10
2023-03-24T13:07:11.565Z,18.05
2023-03-24T13:09:46.114Z,18.51
2023-03-24T13:12:15.767Z,18.41
2023-03-24T13:14:53.409Z,18.40
2023-03-24T13:17:25.830Z,18.66
2023-03-24T13:19:53.866Z,18.78
2023-03-24T13:22:23.266Z,18.94
2023-03-24T13:24:51.354Z,18.57
2023-03-24T13:27:22.018Z,18.63
2023-03-24T13:30:07.429Z,18.97
2023-03-24T13:32:38.382Z,18.81
2023-03-24T13:35:10.166Z,18.63
2023-03-24T13:37:41.301Z,18.70
2023-03-24T13:40:12.305Z,18.86
2023-03-24T13:42:49.282Z,18.62
2023-03-24T13:45:25.154Z,18.49
2023-03-24T13:48:03.462Z,18.37
2023-03-24T13:50:34.689Z,18.24
2023-03-24T13:53:08.160Z,18.16
2023-03-24T13:55:37.953Z,18.18
2023-03-24T13:58:10.643Z,18.56
2023-03-24T14:01:06.811Z,18.63
2023-03-24T14:03:35.739Z,18.75
2023-03-24T14:06:05.876Z,19.16
2023-03-24T14:08:43.764Z,18.84
2023-03-24T14:11:45.667Z,19.10
2023-03-24T14:14:21.964Z,18.94
2023-03-24T14:17:07.835Z,18.76
2023-03-24T14:19:39.206Z,18.66
2023-03-24T14:22:12.560Z,18.45
2023-03-24T14:24:42.734Z,18.52
2023-03-24T14:27:38.626Z,18.28
2023-03-24T14:30:14.745Z,18.07
2023-03-24T14:32:46.559Z,18.20
2023-03-24T14:35:42.895Z,18.42
2023-03-24T14:38:22.466Z,18.26
2023-03-24T14:40:53.511Z,18.38
2023-03-24T14:43:24.136Z,18.48
2023-03-24T14:46:00.043Z,18.12
2023-03-24T14:48:38.160Z,18.23
2023-03-24T14:51:16.686Z,18.11
2023-03-24T14:53:46.122Z,18.06
2023-03-24T14:56:19.479Z,17.79
2023-03-24T14:58:48.155Z,17.91
2023-03-24T15:01:17.551Z,18.04
2023-03-24T15:03:50.987Z,18.20
2023-03-24T15:06:23.173Z,18.21
2023-03-24T15:08:52.238Z,18.26
2023-03-24T15:11:23.117Z,18.22
2023-03-24T15:13:52.320Z,18.22
2023-03-24T15:16:22.631Z,18.04
2023-03-24T15:19:00.648Z,18.10
2023-03-24T15:21:34.061Z,18.36
2023-03-24T15:24:02.834Z,18.47
2023-03-24T15:26:32.814Z,18.76
2023-03-24T15:29:04.321Z,19.04
2023-03-24T15:31:32.365Z,19.20
2023-03-24T15:34:25.544Z,18.98
2023-03-24T15:36:55.140Z,19.08
2023-03-24T15:39:27.027Z,19.13
2023-03-24T15:41:56.972Z,19.18
2023-03-24T15:44:27.242Z,19.38
2023-03-24T15:46:56.594Z,19.59
2023-03-24T15:49:27.100Z,19.55
2023-03-24T15:51:58.128Z,19.46
2023-03-24T15:54:26.589Z,19.52
2023-03-24T15:57:04.119Z,19.16
2023-03-24T15:59:38.054Z,18.95
2023-03-24T16:02:07.130Z,18.75
2023-03-24T16:04:35.649Z,19.14
2023-03-24T16:07:04.969Z,19.18
2023-03-24T16:09:38.050Z,19.38
2023-03-24T16:12:11.968Z,19.39
2023-03-24T16:14:42.594Z,19.46
2023-03-24T16:17:12.658Z,19.33
2023-03-24T16:19:40.827Z,19.33
2023-03-24T16:22:11.161Z,19.23
2023-03-24T16:24:39.135Z,19.16
2023-03-24T16:27:07.581Z,19.08
2023-03-24T16:29:37.452Z,18.57
2023-03-24T16:32:06.963Z,18.48
2023-03-24T16:34:36.754Z,18.18
2023-03-24T16:37:05.388Z,18.13
2023-03-24T16:39:33.828Z,17.95
2023-03-24T16:42:01.920Z,17.60
2023-03-24T16:44:29.861Z,17.23
2023-03-24T16:47:00.232Z,17.58
2023-03-24T16:49:28.325Z,17.79
2023-03-24T16:51:56.796Z,18.05
2023-03-24T16:54:25.579Z,18.09
2023-03-24T16:56:53.605Z,17.80
2023-03-24T16:59:23.039Z,17.42
2023-03-24T17:01:51.014Z,17.76
2023-03-24T17:04:22.219Z,17.64
2023-03-24T17:06:52.837Z,17.97
2023-03-24T17:09:21.279Z,18.14
2023-03-24T17:11:50.934Z,17.97
2023-03-24T17:14:18.949Z,17.88
2023-03-24T17:16:49.244Z,17.53
2023-03-24T17:19:21.419Z,17.26
2023-03-24T17:21:50.840Z,16.81
2023-03-24T17:24:18.875Z,16.71
2023-03-24T17:26:47.405Z,16.65
2023-03-24T17:29:15.441Z,16.51
2023-03-24T17:31:45.454Z,16.44
2023-03-24T17:36:49.641Z,16.21
2023-03-24T17:39:18.156Z,16.15
2023-03-24T17:41:46.662Z,15.98
2023-03-24T17:44:14.641Z,15.81
2023-03-24T17:46:42.680Z,15.80
2023-03-24T17:49:11.519Z,15.67
2023-03-24T17:51:40.925Z,15.81
2023-03-24T17:54:11.871Z,15.78
2023-03-24T17:56:39.945Z,15.69
2023-03-24T17:59:08.163Z,15.64
2023-03-24T18:01:39.225Z,15.62
2023-03-24T18:04:08.052Z,15.48
2023-03-24T18:06:38.527Z,15.52
2023-03-24T18:09:09.187Z,15.41
2023-03-24T18:11:38.536Z,15.35
2023-03-24T18:14:09.108Z,15.42
2023-03-24T18:16:39.229Z,15.38
2023-03-24T18:19:07.267Z,15.51
2023-03-24T18:21:35.186Z,15.51
2023-03-24T18:24:04.795Z,15.52
2023-03-24T18:26:33.630Z,15.44
2023-03-24T18:29:03.502Z,15.44
2023-03-24T18:31:32.929Z,15.34
2023-03-24T18:34:01.310Z,15.18
2023-03-24T18:36:29.558Z,15.27
2023-03-24T18:38:58.744Z,15.19
2023-03-24T18:41:28.333Z,15.16
2023-03-24T18:44:00.217Z,15.16
2023-03-24T18:46:31.530Z,15.03
2023-03-24T18:48:59.911Z,15.01
2023-03-24T18:51:29.788Z,15.03
2023-03-24T18:53:57.860Z,14.91
2023-03-24T18:56:28.440Z,14.76
2023-03-24T18:58:56.918Z,14.70
2023-03-24T19:01:24.977Z,14.58
2023-03-24T19:03:54.428Z,14.52
2023-03-24T19:06:26.120Z,14.36
2023-03-24T19:08:55.617Z,14.36
2023-03-24T19:11:24.509Z,14.36
2023-03-24T19:13:52.443Z,14.34
2023-03-24T19:16:21.991Z,14.35
2023-03-24T19:18:50.642Z,14.36
2023-03-24T19:21:23.037Z,14.38
2023-03-24T19:23:52.595Z,14.32
2023-03-24T19:26:23.010Z,14.41
2023-03-24T19:28:52.659Z,14.40
2023-03-24T19:31:22.380Z,14.39
2023-03-24T19:33:52.328Z,14.42
2023-03-24T19:36:25.486Z,14.45
2023-03-24T19:38:53.550Z,14.48
2023-03-24T19:41:24.074Z,14.36
2023-03-24T19:43:52.039Z,14.44
2023-03-24T19:46:21.614Z,14.45
2023-03-24T19:48:49.578Z,14.43
2023-03-24T19:51:18.544Z,14.42
2023-03-24T19:53:48.016Z,14.39
2023-03-24T19:56:17.988Z,14.39
2023-03-24T19:58:46.006Z,14.40
2023-03-24T20:01:14.158Z,14.38
2023-03-24T20:03:42.498Z,14.29
2023-03-24T20:06:12.576Z,14.34
2023-03-24T20:08:41.367Z,14.26
2023-03-24T20:11:12.062Z,14.18
2023-03-24T20:13:40.093Z,14.20
2023-03-24T20:16:08.580Z,14.24
2023-03-24T20:18:36.672Z,14.16
2023-03-24T20:21:06.335Z,14.22
2023-03-24T20:23:36.439Z,14.23
2023-03-24T20:26:04.646Z,14.24
2023-03-24T20:28:35.417Z,14.19
2023-03-24T20:31:03.759Z,14.18
2023-03-24T20:33:32.205Z,14.15
2023-03-24T20:36:02.316Z,14.11
2023-03-24T20:38:34.019Z,14.17
2023-03-24T20:41:03.033Z,14.19
2023-03-24T20:43:35.554Z,14.21
2023-03-24T20:46:10.750Z,14.07
2023-03-24T20:48:38.896Z,14.07
2023-03-24T20:51:07.401Z,14.17
2023-03-24T20:53:36.006Z,14.17
2023-03-24T20:56:06.606Z,14.21
2023-03-24T20:58:34.672Z,14.13
2023-03-24T21:01:08.086Z,14.02
2023-03-24T21:03:52.660Z,14.10
2023-03-24T21:06:21.185Z,14.24
2023-03-24T21:08:49.115Z,14.13
2023-03-24T21:11:19.072Z,14.20
2023-03-24T21:13:50.540Z,14.28
2023-03-24T21:16:20.570Z,14.25
2023-03-24T21:18:48.556Z,14.15
2023-03-24T21:21:16.847Z,14.17
2023-03-24T21:23:44.838Z,14.19
2023-03-24T21:26:13.726Z,14.22
2023-03-24T21:28:41.678Z,14.09
2023-03-24T21:31:10.774Z,14.01
2023-03-24T21:33:43.387Z,14.08
2023-03-24T21:36:13.231Z,14.07
2023-03-24T21:38:42.879Z,14.13
2023-03-24T21:41:11.160Z,14.15
2023-03-24T21:43:43.406Z,14.17
2023-03-24T21:46:20.390Z,14.11
2023-03-24T21:48:52.139Z,14.16
2023-03-24T21:51:21.110Z,14.12
2023-03-24T21:53:49.747Z,14.14
2023-03-24T21:56:20.234Z,14.13
2023-03-24T21:58:48.548Z,14.22
2023-03-24T22:01:16.775Z,14.21
2023-03-24T22:03:46.450Z,14.21
2023-03-24T22:06:15.983Z,14.17
2023-03-24T22:08:48.828Z,14.19
2023-03-24T22:11:18.817Z,14.07
2023-03-24T22:13:48.298Z,14.03
2023-03-24T22:16:16.227Z,14.04
2023-03-24T22:18:49.705Z,13.88
2023-03-24T22:21:20.316Z,13.94
2023-03-24T22:23:48.626Z,14.06
2023-03-24T22:26:17.125Z,13.91
2023-03-24T22:28:45.467Z,13.80
2023-03-24T22:31:14.687Z,13.90
2023-03-24T22:33:44.240Z,13.92
2023-03-24T22:36:12.830Z,13.89
2023-03-24T22:38:43.715Z,13.87
2023-03-24T22:41:12.878Z,13.95
2023-03-24T22:43:41.628Z,13.93
2023-03-24T22:46:09.724Z,14.01
2023-03-24T22:48:39.132Z,13.91
2023-03-24T22:51:08.803Z,13.90
2023-03-24T22:53:38.032Z,13.88
2023-03-24T22:56:09.156Z,13.98
2023-03-24T22:58:40.109Z,14.00
2023-03-24T23:01:08.638Z,13.97
2023-03-24T23:03:39.297Z,14.03
2023-03-24T23:06:10.136Z,14.05
2023-03-24T23:08:40.235Z,14.12
2023-03-24T23:11:10.071Z,14.00
2023-03-24T23:13:38.959Z,14.14
2023-03-24T23:16:07.617Z,14.11
2023-03-24T23:18:36.148Z,14.02
2023-03-24T23:21:07.095Z,14.07
2023-03-24T23:23:35.658Z,14.11
2023-03-24T23:26:06.065Z,14.25
2023-03-24T23:28:35.979Z,14.18
2023-03-24T23:31:05.459Z,14.22
2023-03-24T23:33:34.534Z,14.24
2023-03-24T23:36:03.058Z,14.27
2023-03-24T23:38:31.547Z,14.19
2023-03-24T23:41:01.193Z,14.36
2023-03-24T23:43:29.358Z,14.38
2023-03-24T23:45:58.665Z,14.33
2023-03-24T23:48:27.653Z,14.37
2023-03-24T23:50:58.601Z,14.37
2023-03-24T23:53:26.876Z,14.37
2023-03-24T23:56:01.047Z,14.36
2023-03-24T23:58:30.415Z,14.33
